Catanduanes Radar Site, Philippines
Current Conditions -  °F | °C
As of 6:00 PM on Sunday 25 Jan 2015 (Local Time) from RPLL Reporting Station
Broken Clouds Broken Clouds  
Wind Chill: 79°   Ceiling: 30000
Heat Index: 81°   Visibility: 6mi
Dew Point: 68°   Wind: 10mph
Humidity: 69%   Direction: 110°ESE
Pressure: 29.97"   Gusts: NA
Location:  13.98°N, 124.32°E
Report Text: RPLL 251000Z 11009KT 080V140 9999 SCT025 BKN300 26/20 Q1015 NOSIG RMK A2997
Loading
Personal Weather Stations






























Interactive Weather Map New forecast layout! Learn more

10-Day Weather Forecast

Advertisements
Track Severe Weather on mobile